LIBP Airport Information

Runway Information
Runway 04 Length 7933 ft width 148 ft Elevation 46 ft Threshold 344 ft Heading 38
Runway 22 Length 7933 ft Width 148 ft Elevation 27 ft Threshold 617 ft Heading 218
Airport Frequencies
Type APP Name APP Frequency 120.05 MHZ
Type TWR Name TWR Frequency 118.45 MHZ
Airport Navaids
Type VOR-DME Name Pescara Frequency 115900 KHZ
Airport Weather Information & NOTAM
ADDS - METARS form results

(0227 UTC 05 December 2022)
Data provider http://aviationweather.gov/metar/data/
 
METAR text: LIBP 050220Z AUTO VRB01KT 9999 BKN130/// 07/07 Q1019
Conditions at: LIBP (PESCARA , IT) observed 0220 UTC 05 December 2022
Temperature: 7.0°C (45°F)
Dewpoint: 7.0°C (45°F) [RH = 100%]
Pressure (altimeter): 30.09 inches Hg (1019.0 mb)
Winds: variable direction winds at 1 MPH (1 knots; 0.5 m/s)
Visibility: 6 or more miles (10+ km)
Ceiling: 13000 feet AGL
Clouds: broken clouds at 13000 feet AGL
Weather: no significant weather observed at this time

METAR text: LIBP 050150Z AUTO 23003KT 180V310 9999 OVC160/// 07/07 Q1019
Conditions at: LIBP (PESCARA , IT) observed 0150 UTC 05 December 2022
Temperature: 7.0°C (45°F)
Dewpoint: 7.0°C (45°F) [RH = 100%]
Pressure (altimeter): 30.09 inches Hg (1019.0 mb)
Winds: from the SW (230 degrees) at 3 MPH (3 knots; 1.5 m/s)
Visibility: 6 or more miles (10+ km)
Ceiling: 16000 feet AGL
Clouds: overcast cloud deck at 16000 feet AGL
Weather: no significant weather observed at this time

Forecast for: LIBP (PESCARA , IT)
Text: TAF LIBP 042300Z 0500/0524 VRB05KT 7000 SCT050
Forecast period: 0000 UTC 05 December 2022 to 0000 UTC 06 December 2022
Forecast type: FROM: standard forecast or significant change
Winds: variable direction winds at 6 MPH (5 knots; 2.6 m/s)
Visibility: 4 miles (7 km)
Ceiling: at least 12,000 feet AGL
Clouds: scattered clouds at 5000 feet AGL
Weather: no significant weather forecast for this period
Text: TEMPO 0500/0506 1200 BCFG BKN010
Forecast period: 0000 to 0600 UTC 05 December 2022
Forecast type: TEMPORARY: The following changes expected for less than half the time period
Visibility: 0.75 miles (1.21 km)
Ceiling: 1000 feet AGL
Clouds: broken clouds at 1000 feet AGL
Weather: BCFG  (patches of fog)